Burlingame, Kansas
Current Conditions -  °F | °C
As of 8:53 AM on Saturday 22 Nov 2014 (Local Time) from KFOE Reporting Station
Moderate Fog Moderate Fog  
Wind Chill: 51°   Ceiling: 200
Heat Index: 51°   Visibility: 0.25mi
Dew Point: 49°   Wind: 6mph
Humidity: 92%   Direction: 180°S
Pressure: 29.95"   Gusts: NA
Location:  38.75°N, 95.83°W
Report Text: KFOE 221453Z 18005KT 1/4SM R31/1600V1800FT FG VV002 11/09 A2995 RMK AO2 SLP144 T01060094 56004
Loading
Personal Weather Stations






























Interactive Weather Map New forecast layout! Learn more

10-Day Weather Forecast

Advertisements
Track Severe Weather on mobile